METAR stanice u blizini

 

LYBE - Beograd / Surčin, Srbija
Ažurirano: 19/08/2019 13:30
Vedro
Vedro
 Pravac vetra varies
Vetar: varies 4 km/h
Temperatura: 33°C
Tačka rose: 12°C
Vlažnost: 28%
Pritisak: 1017 hPa
Pregled: Vedro
Vidljivost: greater than 10 km
2019/08/19 11:30 LYBE 191130Z VRB02KT CAVOK 33/12 Q1017 NOSIG
LYBT - Beograd / Batajnica, Srbija
Ažurirano: 19/08/2019 13:30
Vedro
Vedro
 Pravac vetra I
Vetar: I 9 km/h
Temperatura: 32°C
Tačka rose: 12°C
Vlažnost: 29%
Pritisak: 1016 hPa
Pregled: Vedro
Vidljivost: greater than 10 km
2019/08/19 11:30 LYBT 191130Z 08005KT 350V150 CAVOK 32/12 Q1016 NOSIG
LYVR - Vršac, Srbija
Ažurirano: 19/08/2019 13:30
Vedro
Vedro
 Pravac vetra ZJZ
Vetar: ZJZ 7 km/h
Temperatura: 33°C
Tačka rose: 11°C
Vlažnost: 26%
Pritisak: 1016 hPa
Pregled: Vedro
Vidljivost: greater than 10 km
2019/08/19 11:30 LYVR 191130Z 24004KT 160V320 CAVOK 33/11 Q1016 NOSIG
 
LYKV - Lađevci, Srbija
Ažurirano: 19/08/2019 13:30
Vedro
Vedro
 Pravac vetra varies
Vetar: varies 4 km/h
Temperatura: 32°C
Tačka rose: 9°C
Vlažnost: 24%
Pritisak: 1017 hPa
Pregled: Vedro
Vidljivost: greater than 10 km
2019/08/19 11:30 LYKV 191130Z VRB02KT CAVOK 32/09 Q1017 NOSIG
LYNI - Niš, Srbija
Ažurirano: 19/08/2019 13:30
Vedro
Vedro
 Pravac vetra SZ
Vetar: SZ 4 km/h
Temperatura: 31°C
Tačka rose: 9°C
Vlažnost: 25%
Pritisak: 1017 hPa
Pregled: Vedro
Vidljivost: greater than 10 km
2019/08/19 11:30 LYNI 191130Z 32002KT CAVOK 31/09 Q1017 NOSIG
BKPR - Priština, Srbija
Ažurirano: 19/08/2019 13:30
Vedro
Vedro
 Pravac vetra IJI
Vetar: IJI 7 km/h
Temperatura: 30°C
Tačka rose: 9°C
Vlažnost: 27%
Pritisak: 1019 hPa
Pregled: Vedro
Vidljivost: greater than 10 km
2019/08/19 11:30 BKPR 191130Z 12004KT CAVOK 30/09 Q1019 NOSIG
 
LHPP - Pecs / Pogany, Hungary
Ažurirano: 19/08/2019 13:15
Vedro
Vedro
 Pravac vetra JJI
Vetar: JJI 6 km/h
Temperatura: 30°C
Heat Index: 30°C
Tačka rose: 16°C
Vlažnost: 43%
Pritisak: 1017 hPa
Pregled: Vedro
Vidljivost: greater than 10 km
2019/08/19 11:15 LHPP 191115Z 16003KT CAVOK 30/16 Q1017
LHUD - Szeged, Hungary
Ažurirano: 04/07/2019 01:45
NOT Current
Vedro
Vedro
 Pravac vetra S
Vetar: S 7 km/h
Temperatura: 18°C
Tačka rose: 13°C
Vlažnost: 73%
Pritisak: 1019 hPa
Pregled: Vedro
Vidljivost: greater than 10 km
2019/07/03 23:45 LHUD 032345Z 35004KT CAVOK 18/13 Q1019
LRTR - Timisoara, Romania
Ažurirano: 19/08/2019 13:30
Vedro
Vedro
 Pravac vetra IJI
Vetar: IJI 9 km/h
Temperatura: 32°C
Tačka rose: 10°C
Vlažnost: 26%
Pritisak: 1017 hPa
Pregled: Vedro
Vidljivost: greater than 10 km
2019/08/19 11:30 LRTR 191130Z 11005KT 020V170 CAVOK 32/10 Q1017 NOSIG
 
LRCV - Craiova, Romania
Ažurirano: 19/08/2019 13:30
Vedro
Vedro
 Pravac vetra varies
Vetar: varies 7 km/h
Temperatura: 31°C
Tačka rose: 11°C
Vlažnost: 29%
Pritisak: 1018 hPa
Pregled: Vedro
Vidljivost: greater than 10 km
2019/08/19 11:30 LRCV 191130Z VRB04KT CAVOK 31/11 Q1018
LBSF - Sofia, Bulgaria
Ažurirano: 19/08/2019 13:30
Vedro
Vedro
 Pravac vetra JI
Vetar: JI 13 km/h
Temperatura: 29°C
Tačka rose: 10°C
Vlažnost: 31%
Pritisak: 1019 hPa
Pregled: Vedro
Vidljivost: greater than 10 km
2019/08/19 11:30 LBSF 191130Z 13007KT 050V190 CAVOK 29/10 Q1019 NOSIG
LWSK - Skoplje, Makedonija
Ažurirano: 19/08/2019 13:30
Vedro
Vedro
 Pravac vetra varies
Vetar: varies 6 km/h
Temperatura: 32°C
Tačka rose: 8°C
Vlažnost: 22%
Pritisak: 1017 hPa
Pregled: Vedro
Vidljivost: greater than 10 km
2019/08/19 11:30 LWSK 191130Z VRB03KT CAVOK 32/08 Q1017 NOSIG
 
LYPG - Podgorica, Crna Gora
Ažurirano: 19/08/2019 13:30
Vedro
Vedro
 Pravac vetra JJZ
Vetar: JJZ 6 km/h
Temperatura: 32°C
Tačka rose: 16°C
Vlažnost: 38%
Pritisak: 1015 hPa
Pregled: Vedro
Vidljivost: greater than 10 km
2019/08/19 11:30 LYPG 191130Z 21003KT 110V280 CAVOK 32/16 Q1015 NOSIG
LQSA - Sarajevo, Bosna i Hercegovina
Ažurirano: 19/08/2019 13:30
Vedro
Vedro
 Pravac vetra varies
Vetar: varies 6 km/h
Temperatura: 30°C
Tačka rose: 13°C
Vlažnost: 35%
Pritisak: 1018 hPa
Pregled: Vedro
Vidljivost: greater than 10 km
2019/08/19 11:30 LQSA 191130Z VRB03KT CAVOK 30/13 Q1018 NOSIG
LDOS - Osijek, Hrvatksa
Ažurirano: 19/08/2019 13:30
Vedro
Vedro
 Pravac vetra varies
Vetar: varies 4 km/h
Temperatura: 32°C
Tačka rose: 16°C
Vlažnost: 38%
Pritisak: 1016 hPa
Pregled: Vedro
Vidljivost: greater than 10 km
2019/08/19 11:30 LDOS 191130Z VRB02KT CAVOK 32/16 Q1016